createdAt,value
2018-09-30T00:02:20.137Z,5.00
2018-09-30T00:04:48.663Z,5.50
2018-09-30T00:07:17.100Z,5.00
2018-09-30T00:09:45.615Z,6.50
2018-09-30T00:12:14.108Z,3.00
2018-09-30T00:14:42.550Z,5.00
2018-09-30T00:17:10.996Z,4.50
2018-09-30T00:19:39.538Z,3.00
2018-09-30T00:22:08.007Z,3.00
2018-09-30T00:24:41.662Z,1.50
2018-09-30T00:27:15.592Z,2.50
2018-09-30T00:29:44.123Z,3.00
2018-09-30T00:32:12.638Z,3.00
2018-09-30T00:34:41.999Z,3.00
2018-09-30T00:37:10.451Z,3.00
2018-09-30T00:39:38.942Z,2.00
2018-09-30T00:42:07.792Z,3.00
2018-09-30T00:44:36.358Z,3.00
2018-09-30T00:47:06.947Z,3.00
2018-09-30T00:49:35.476Z,3.00
2018-09-30T00:52:03.956Z,1.00
2018-09-30T00:54:32.444Z,3.00
2018-09-30T00:57:00.911Z,3.75
2018-09-30T00:59:30.635Z,4.25
2018-09-30T01:01:59.119Z,3.75
2018-09-30T01:04:27.611Z,3.25
2018-09-30T01:06:56.099Z,3.75
2018-09-30T01:09:24.562Z,3.75
2018-09-30T01:11:53.082Z,3.75
2018-09-30T01:14:21.575Z,4.75
2018-09-30T01:16:50.098Z,3.75
2018-09-30T01:19:18.591Z,3.75
2018-09-30T01:21:47.132Z,3.25
2018-09-30T01:24:15.594Z,3.75
2018-09-30T01:26:44.112Z,3.75
2018-09-30T01:29:12.624Z,5.75
2018-09-30T01:31:41.117Z,5.75
2018-09-30T01:34:09.591Z,7.25
2018-09-30T01:36:38.088Z,6.25
2018-09-30T01:39:07.653Z,5.75
2018-09-30T01:41:36.132Z,6.75
2018-09-30T01:44:04.722Z,6.75
2018-09-30T01:46:33.214Z,6.25
2018-09-30T01:49:01.720Z,5.75
2018-09-30T01:51:30.252Z,7.75
2018-09-30T01:53:58.757Z,7.75
2018-09-30T01:56:27.297Z,8.25
2018-09-30T01:58:55.841Z,11.25
2018-09-30T02:01:24.338Z,11.75
2018-09-30T02:03:52.816Z,11.75
2018-09-30T02:06:21.453Z,11.25
2018-09-30T02:08:49.923Z,7.75
2018-09-30T02:11:18.448Z,8.00
2018-09-30T02:13:46.940Z,6.50
2018-09-30T02:16:15.385Z,8.00
2018-09-30T02:18:43.887Z,8.50
2018-09-30T02:21:12.376Z,7.50
2018-09-30T02:23:40.881Z,9.50
2018-09-30T02:26:09.412Z,10.00
2018-09-30T02:28:37.913Z,10.00
2018-09-30T02:31:06.444Z,9.50
2018-09-30T02:33:34.952Z,9.50
2018-09-30T02:36:03.444Z,10.00
2018-09-30T02:38:31.933Z,9.00
2018-09-30T02:41:00.425Z,10.00
2018-09-30T02:43:28.932Z,12.00
2018-09-30T02:45:57.492Z,14.00
2018-09-30T02:48:25.980Z,16.00
2018-09-30T02:50:54.485Z,13.00
2018-09-30T02:53:23.039Z,14.00
2018-09-30T02:55:51.649Z,12.00
2018-09-30T02:58:20.129Z,10.00
2018-09-30T03:00:49.649Z,13.50
2018-09-30T03:03:18.157Z,15.50
2018-09-30T03:05:46.663Z,9.50
2018-09-30T03:08:20.401Z,11.50
2018-09-30T03:10:48.888Z,15.00
2018-09-30T03:13:17.347Z,13.50
2018-09-30T03:15:45.812Z,12.00
2018-09-30T03:18:14.257Z,13.00
2018-09-30T03:20:42.721Z,16.00
2018-09-30T03:23:11.201Z,13.50
2018-09-30T03:25:39.652Z,11.50
2018-09-30T03:28:08.164Z,16.00
2018-09-30T03:30:36.616Z,13.50
2018-09-30T03:33:05.121Z,17.50
2018-09-30T03:35:33.651Z,14.00
2018-09-30T03:38:02.116Z,16.00
2018-09-30T03:40:30.593Z,14.00
2018-09-30T03:42:59.099Z,16.00
2018-09-30T03:45:27.596Z,15.00
2018-09-30T03:47:56.100Z,16.00
2018-09-30T03:50:24.649Z,15.50
2018-09-30T03:52:53.153Z,12.00
2018-09-30T03:55:21.864Z,18.00
2018-09-30T03:57:50.306Z,13.50
2018-09-30T04:00:18.872Z,15.50
2018-09-30T04:02:47.354Z,17.00
2018-09-30T04:05:15.919Z,18.00
2018-09-30T04:07:44.502Z,14.00
2018-09-30T04:10:13.091Z,12.50
2018-09-30T04:12:41.551Z,12.00
2018-09-30T04:15:10.086Z,14.50
2018-09-30T04:17:38.635Z,17.00
2018-09-30T04:20:07.169Z,18.50
2018-09-30T04:22:35.704Z,18.00
2018-09-30T04:25:04.206Z,17.00
2018-09-30T04:27:32.654Z,14.00
2018-09-30T04:30:01.155Z,18.00
2018-09-30T04:32:29.680Z,16.50
2018-09-30T04:34:58.159Z,15.50
2018-09-30T04:37:26.682Z,14.00
2018-09-30T04:39:55.170Z,12.50
2018-09-30T04:42:23.661Z,15.00
2018-09-30T04:44:52.165Z,16.50
2018-09-30T04:47:20.648Z,12.50
2018-09-30T04:49:49.161Z,16.00
2018-09-30T04:52:17.659Z,13.50
2018-09-30T04:54:46.161Z,12.50
2018-09-30T04:57:14.605Z,14.00
2018-09-30T04:59:43.070Z,15.00
2018-09-30T05:02:11.557Z,17.00
2018-09-30T05:04:40.037Z,13.50
2018-09-30T05:07:08.504Z,17.00
2018-09-30T05:09:36.970Z,11.00
2018-09-30T05:12:05.496Z,12.00
2018-09-30T05:14:33.958Z,13.50
2018-09-30T05:17:02.476Z,13.00
2018-09-30T05:19:30.914Z,13.50
2018-09-30T05:21:59.373Z,12.00
2018-09-30T05:24:27.849Z,14.00
2018-09-30T05:26:56.309Z,15.50
2018-09-30T05:29:25.628Z,16.00
2018-09-30T05:31:54.127Z,12.50
2018-09-30T05:34:22.570Z,11.50
2018-09-30T05:36:51.093Z,12.00
2018-09-30T05:39:20.038Z,13.50
2018-09-30T05:41:49.469Z,11.50
2018-09-30T05:44:17.978Z,14.00
2018-09-30T05:46:46.476Z,10.50
2018-09-30T05:49:14.972Z,12.00
2018-09-30T05:51:43.434Z,14.50
2018-09-30T05:54:13.172Z,13.00
2018-09-30T05:56:41.735Z,14.00
2018-09-30T05:59:10.332Z,14.50
2018-09-30T06:01:38.931Z,14.50
2018-09-30T06:04:07.676Z,13.50
2018-09-30T06:06:36.080Z,14.50
2018-09-30T06:09:07.464Z,14.50
2018-09-30T06:11:35.807Z,10.00
2018-09-30T06:14:04.445Z,11.50
2018-09-30T06:16:33.647Z,11.50
2018-09-30T06:19:02.365Z,12.50
2018-09-30T06:21:30.819Z,13.00
2018-09-30T06:23:59.383Z,11.50
2018-09-30T06:26:27.808Z,12.00
2018-09-30T06:28:56.305Z,14.50
2018-09-30T06:31:24.770Z,14.00
2018-09-30T06:33:53.338Z,12.50
2018-09-30T06:36:21.846Z,14.50
2018-09-30T06:38:50.359Z,12.50
2018-09-30T06:41:19.357Z,13.50
2018-09-30T06:43:47.861Z,13.50
2018-09-30T06:46:16.371Z,14.00
2018-09-30T06:48:44.852Z,17.00
2018-09-30T06:51:13.340Z,19.00
2018-09-30T06:53:41.912Z,20.00
2018-09-30T06:56:10.396Z,18.00
2018-09-30T06:58:38.862Z,17.50
2018-09-30T07:01:07.394Z,19.00
2018-09-30T07:03:35.838Z,18.00
2018-09-30T07:06:04.382Z,17.75
2018-09-30T07:08:32.862Z,16.25
2018-09-30T07:11:01.321Z,16.25
2018-09-30T07:13:29.770Z,17.25
2018-09-30T07:15:58.277Z,13.00
2018-09-30T07:18:26.719Z,16.50
2018-09-30T07:20:56.022Z,16.50
2018-09-30T07:23:24.464Z,13.50
2018-09-30T07:25:52.918Z,15.00
2018-09-30T07:28:21.395Z,20.00
2018-09-30T07:30:49.846Z,19.00
2018-09-30T07:33:18.464Z,19.50
2018-09-30T07:35:46.914Z,20.50
2018-09-30T07:38:15.350Z,22.50
2018-09-30T07:40:43.812Z,20.50
2018-09-30T07:43:12.242Z,22.00
2018-09-30T07:45:40.785Z,21.00
2018-09-30T07:48:09.201Z,18.50
2018-09-30T07:50:37.764Z,24.25
2018-09-30T07:53:08.605Z,19.75
2018-09-30T07:55:37.064Z,20.25
2018-09-30T07:58:05.553Z,20.75
2018-09-30T08:00:34.062Z,20.25
2018-09-30T08:03:02.657Z,23.50
2018-09-30T08:05:31.143Z,19.25
2018-09-30T08:07:59.640Z,18.00
2018-09-30T08:10:28.091Z,20.50
2018-09-30T08:12:56.603Z,20.50
2018-09-30T08:15:25.142Z,22.00
2018-09-30T08:17:53.646Z,19.50
2018-09-30T08:20:22.139Z,18.50
2018-09-30T08:22:50.591Z,20.50
2018-09-30T08:25:24.062Z,20.00
2018-09-30T08:27:52.570Z,25.25
2018-09-30T08:30:21.101Z,20.00
2018-09-30T08:32:49.603Z,20.25
2018-09-30T08:35:18.119Z,19.75
2018-09-30T08:37:51.925Z,21.75
2018-09-30T08:40:25.555Z,22.75
2018-09-30T08:42:54.054Z,20.75
2018-09-30T08:45:23.494Z,22.25
2018-09-30T08:47:51.989Z,20.00
2018-09-30T08:50:20.545Z,18.00
2018-09-30T08:52:49.029Z,19.00
2018-09-30T08:55:17.516Z,21.00
2018-09-30T08:57:47.031Z,17.75
2018-09-30T09:00:15.584Z,20.00
2018-09-30T09:02:44.115Z,16.75
2018-09-30T09:05:12.624Z,21.00
2018-09-30T09:07:41.102Z,17.00
2018-09-30T09:10:09.611Z,19.75
2018-09-30T09:12:38.224Z,20.25
2018-09-30T09:15:06.849Z,16.50
2018-09-30T09:17:35.327Z,18.75
2018-09-30T09:20:05.600Z,17.50
2018-09-30T09:22:34.136Z,18.00
2018-09-30T09:25:02.682Z,16.75
2018-09-30T09:27:31.163Z,17.00
2018-09-30T09:29:59.662Z,17.50
2018-09-30T09:32:28.184Z,14.50
2018-09-30T09:34:56.695Z,17.75
2018-09-30T09:37:25.166Z,17.00
2018-09-30T09:39:53.655Z,19.00
2018-09-30T09:42:22.120Z,17.25
2018-09-30T09:44:50.639Z,18.25
2018-09-30T09:47:19.117Z,18.50
2018-09-30T09:49:47.630Z,16.75
2018-09-30T09:52:17.510Z,19.75
2018-09-30T09:54:46.024Z,18.00
2018-09-30T09:57:14.581Z,19.00
2018-09-30T09:59:43.088Z,16.75
2018-09-30T10:02:11.633Z,16.75
2018-09-30T10:04:42.285Z,15.75
2018-09-30T10:07:10.853Z,18.00
2018-09-30T10:09:40.054Z,17.00
2018-09-30T10:12:09.350Z,15.00
2018-09-30T10:14:38.602Z,14.75
2018-09-30T10:17:08.004Z,15.00
2018-09-30T10:19:37.318Z,11.75
2018-09-30T10:22:06.447Z,13.75
2018-09-30T10:24:35.669Z,14.50
2018-09-30T10:28:13.395Z,12.50
2018-09-30T10:30:42.615Z,15.50
2018-09-30T10:33:11.857Z,14.50
2018-09-30T10:35:41.306Z,15.00
2018-09-30T10:38:10.545Z,13.00
2018-09-30T10:40:39.854Z,14.00
2018-09-30T10:43:09.048Z,14.00
2018-09-30T10:45:38.244Z,14.00
2018-09-30T10:48:07.468Z,12.50
2018-09-30T10:50:37.307Z,13.25
2018-09-30T10:53:26.130Z,11.25
2018-09-30T10:55:55.330Z,11.00
2018-09-30T10:58:24.551Z,9.75
2018-09-30T11:00:53.807Z,12.00
2018-09-30T11:03:24.001Z,11.25
2018-09-30T11:05:53.203Z,12.75
2018-09-30T11:08:22.397Z,12.00
2018-09-30T11:10:51.568Z,12.25
2018-09-30T11:13:20.847Z,13.50
2018-09-30T11:15:50.069Z,13.00
2018-09-30T11:18:19.304Z,15.00
2018-09-30T11:20:48.512Z,12.00
2018-09-30T11:23:17.780Z,16.75
2018-09-30T11:25:47.134Z,14.50
2018-09-30T11:28:16.371Z,13.50
2018-09-30T11:30:45.649Z,11.50
2018-09-30T11:33:14.949Z,14.75
2018-09-30T11:35:44.234Z,13.00
2018-09-30T11:38:13.514Z,17.75
2018-09-30T11:40:43.154Z,17.75
2018-09-30T11:43:12.377Z,18.50
2018-09-30T11:45:41.576Z,20.00
2018-09-30T11:48:10.827Z,18.75
2018-09-30T11:50:41.315Z,20.50
2018-09-30T11:53:10.590Z,17.75
2018-09-30T11:55:39.896Z,19.50
2018-09-30T11:58:09.180Z,20.75
2018-09-30T12:00:38.578Z,19.50
2018-09-30T12:03:07.866Z,20.50
2018-09-30T12:05:37.152Z,21.25
2018-09-30T12:08:06.936Z,20.00
2018-09-30T12:10:36.191Z,23.00
2018-09-30T12:13:05.467Z,16.75
2018-09-30T12:15:34.694Z,18.25
2018-09-30T12:18:03.910Z,15.75
2018-09-30T12:20:33.091Z,18.75
2018-09-30T12:23:02.326Z,19.50
2018-09-30T12:25:31.607Z,16.50
2018-09-30T12:28:00.872Z,18.75
2018-09-30T12:30:30.084Z,17.75
2018-09-30T12:32:59.293Z,17.75
2018-09-30T12:35:29.058Z,16.25
2018-09-30T12:37:58.298Z,14.75
2018-09-30T12:40:28.053Z,15.25
2018-09-30T12:42:57.275Z,15.00
2018-09-30T12:45:26.547Z,13.00
2018-09-30T12:47:55.799Z,15.25
2018-09-30T12:50:25.004Z,19.00
2018-09-30T12:52:54.305Z,17.00
2018-09-30T12:55:23.625Z,14.75
2018-09-30T12:57:52.847Z,17.00
2018-09-30T13:00:22.188Z,18.50
2018-09-30T13:02:51.445Z,16.25
2018-09-30T13:05:20.633Z,19.25
2018-09-30T13:07:49.897Z,18.00
2018-09-30T13:10:19.125Z,17.00
2018-09-30T13:12:48.366Z,17.50
2018-09-30T13:15:17.601Z,19.50
2018-09-30T13:17:46.832Z,16.50
2018-09-30T13:20:16.130Z,19.75
2018-09-30T13:22:45.359Z,20.75
2018-09-30T13:25:15.333Z,19.25
2018-09-30T13:27:44.573Z,22.50
2018-09-30T13:30:13.879Z,21.50
2018-09-30T13:32:43.109Z,17.75
2018-09-30T13:35:12.383Z,20.00
2018-09-30T13:37:41.633Z,20.00
2018-09-30T13:40:11.036Z,23.00
2018-09-30T13:42:40.132Z,22.75
2018-09-30T13:45:09.648Z,19.50
2018-09-30T13:47:38.849Z,21.75
2018-09-30T13:50:08.074Z,19.00
2018-09-30T13:52:37.297Z,19.50
2018-09-30T13:55:06.540Z,16.50
2018-09-30T13:57:35.746Z,18.75
2018-09-30T14:00:05.609Z,15.00
2018-09-30T14:02:34.854Z,15.00
2018-09-30T14:05:04.097Z,12.00
2018-09-30T14:07:33.564Z,11.25
2018-09-30T14:10:03.906Z,11.25
2018-09-30T14:12:33.296Z,11.00
2018-09-30T14:15:02.520Z,10.00
2018-09-30T14:17:33.724Z,11.00
2018-09-30T14:20:04.361Z,11.00
2018-09-30T14:22:36.624Z,6.75
2018-09-30T14:25:08.274Z,7.00
2018-09-30T14:27:40.196Z,5.00
2018-09-30T14:30:11.459Z,7.00
2018-09-30T14:32:43.944Z,5.50
2018-09-30T14:35:14.469Z,6.00
2018-09-30T14:37:46.353Z,8.50
2018-09-30T14:40:17.584Z,5.00
2018-09-30T14:42:50.341Z,7.00
2018-09-30T14:45:19.635Z,7.00
2018-09-30T14:47:48.853Z,8.00
2018-09-30T14:50:18.052Z,8.00
2018-09-30T14:52:47.240Z,8.00
2018-09-30T14:55:16.500Z,8.00
2018-09-30T14:57:45.703Z,7.00
2018-09-30T15:00:14.919Z,9.00
2018-09-30T15:02:44.211Z,9.75
2018-09-30T15:05:13.596Z,7.25
2018-09-30T15:09:02.104Z,11.00
2018-09-30T15:11:31.373Z,8.00
2018-09-30T15:14:00.573Z,7.25
2018-09-30T15:16:29.795Z,7.50
2018-09-30T15:18:59.012Z,7.00
2018-09-30T15:21:28.291Z,10.00
2018-09-30T15:23:57.578Z,8.50
2018-09-30T15:26:27.042Z,7.25
2018-09-30T15:28:56.321Z,9.50
2018-09-30T15:31:25.604Z,7.00
2018-09-30T15:33:55.035Z,9.50
2018-09-30T15:36:24.936Z,9.00
2018-09-30T15:38:55.261Z,8.00
2018-09-30T15:41:25.196Z,7.50
2018-09-30T15:43:54.484Z,9.00
2018-09-30T15:46:25.036Z,7.50
2018-09-30T15:48:54.649Z,7.50
2018-09-30T15:51:24.352Z,7.00
2018-09-30T15:53:53.886Z,8.00
2018-09-30T15:56:23.492Z,7.00
2018-09-30T15:58:53.181Z,6.75
2018-09-30T16:01:22.912Z,8.50
2018-09-30T16:03:53.801Z,7.00
2018-09-30T16:06:23.287Z,7.00
2018-09-30T16:08:52.595Z,8.00
2018-09-30T16:11:22.557Z,8.50
2018-09-30T16:13:52.644Z,9.00
2018-09-30T16:16:22.513Z,9.25
2018-09-30T16:18:53.213Z,7.50
2018-09-30T16:21:23.076Z,7.50
2018-09-30T16:23:52.869Z,6.75
2018-09-30T16:26:23.735Z,6.75
2018-09-30T16:28:53.701Z,7.50
2018-09-30T16:31:23.457Z,6.75
2018-09-30T16:33:53.306Z,6.25
2018-09-30T16:36:23.172Z,7.00
2018-09-30T16:38:53.400Z,6.00
2018-09-30T16:41:22.897Z,7.25
2018-09-30T16:43:52.589Z,7.00
2018-09-30T16:46:22.457Z,6.50
2018-09-30T16:48:52.490Z,9.25
2018-09-30T16:51:22.404Z,6.75
2018-09-30T16:53:52.182Z,8.50
2018-09-30T16:56:21.951Z,7.50
2018-09-30T16:58:51.748Z,8.00
2018-09-30T17:01:21.441Z,9.00
2018-09-30T17:03:51.580Z,12.50
2018-09-30T17:06:21.349Z,8.00
2018-09-30T17:08:52.329Z,9.00
2018-09-30T17:11:21.870Z,7.50
2018-09-30T17:13:54.458Z,7.00
2018-09-30T17:16:26.316Z,8.00
2018-09-30T17:18:55.772Z,9.50
2018-09-30T17:21:25.922Z,7.00
2018-09-30T17:23:56.080Z,9.00
2018-09-30T17:26:30.626Z,9.50
2018-09-30T17:29:02.513Z,11.25
2018-09-30T17:31:33.041Z,10.75
2018-09-30T17:34:04.087Z,10.75
2018-09-30T17:36:37.286Z,10.75
2018-09-30T17:39:10.368Z,9.00
2018-09-30T17:41:41.597Z,9.00
2018-09-30T17:44:12.473Z,11.25
2018-09-30T17:46:48.821Z,10.00
2018-09-30T17:49:20.057Z,10.50
2018-09-30T17:51:51.331Z,11.75
2018-09-30T17:54:23.619Z,11.00
2018-09-30T17:56:56.481Z,11.50
2018-09-30T17:59:28.315Z,10.50
2018-09-30T18:02:03.549Z,12.00
2018-09-30T18:04:33.363Z,11.50
2018-09-30T18:07:05.537Z,11.00
2018-09-30T18:09:37.898Z,12.00
2018-09-30T18:12:07.823Z,13.00
2018-09-30T18:14:37.604Z,9.50
2018-09-30T18:17:14.993Z,11.00
2018-09-30T18:19:44.939Z,11.75
2018-09-30T18:22:14.596Z,12.75
2018-09-30T18:24:44.141Z,11.50
2018-09-30T18:27:15.231Z,12.25
2018-09-30T18:29:44.720Z,11.00
2018-09-30T18:32:15.109Z,11.00
2018-09-30T18:34:45.152Z,14.00
2018-09-30T18:37:19.545Z,13.00
2018-09-30T18:39:49.562Z,11.50
2018-09-30T18:42:19.336Z,11.00
2018-09-30T18:44:48.697Z,11.00
2018-09-30T18:47:19.016Z,12.00
2018-09-30T18:49:48.443Z,11.00
2018-09-30T18:52:18.255Z,12.00
2018-09-30T18:54:49.854Z,11.00
2018-09-30T18:57:25.196Z,10.75
2018-09-30T19:00:03.593Z,14.75
2018-09-30T19:02:35.234Z,11.50
2018-09-30T19:05:06.966Z,13.00
2018-09-30T19:07:38.256Z,13.75
2018-09-30T19:10:08.025Z,13.50
2018-09-30T19:12:39.177Z,13.75
2018-09-30T19:15:09.925Z,11.00
2018-09-30T19:17:41.546Z,13.00
2018-09-30T19:20:12.348Z,13.75
2018-09-30T19:22:43.151Z,13.00
2018-09-30T19:25:13.716Z,14.00
2018-09-30T19:27:46.108Z,14.00
2018-09-30T19:30:17.013Z,16.00
2018-09-30T19:32:47.104Z,13.75
2018-09-30T19:35:18.458Z,16.00
2018-09-30T19:37:52.102Z,14.00
2018-09-30T19:40:22.487Z,15.50
2018-09-30T19:42:52.849Z,16.00
2018-09-30T19:45:23.520Z,15.00
2018-09-30T19:47:55.584Z,16.50
2018-09-30T19:50:26.150Z,18.50
2018-09-30T19:52:55.716Z,18.00
2018-09-30T19:55:25.424Z,14.00
2018-09-30T19:57:57.923Z,14.50
2018-09-30T20:00:27.219Z,14.50
2018-09-30T20:02:56.438Z,15.50
2018-09-30T20:05:25.824Z,14.50
2018-09-30T20:10:34.779Z,13.75
2018-09-30T20:13:03.949Z,13.50
2018-09-30T20:15:33.236Z,14.00
2018-09-30T20:18:03.098Z,12.50
2018-09-30T20:20:32.305Z,13.00
2018-09-30T20:23:01.485Z,10.00
2018-09-30T20:25:30.748Z,14.00
2018-09-30T20:27:59.928Z,12.00
2018-09-30T20:30:29.098Z,13.00
2018-09-30T20:32:58.331Z,17.25
2018-09-30T20:35:27.522Z,14.00
2018-09-30T20:37:56.722Z,14.00
2018-09-30T20:40:25.971Z,15.50
2018-09-30T20:42:55.169Z,15.50
2018-09-30T20:45:24.328Z,16.00
2018-09-30T20:47:53.531Z,17.50
2018-09-30T20:50:22.737Z,16.00
2018-09-30T20:52:51.979Z,14.00
2018-09-30T20:55:21.172Z,12.00
2018-09-30T20:57:50.395Z,14.50
2018-09-30T21:00:19.658Z,14.00
2018-09-30T21:02:48.851Z,16.00
2018-09-30T21:06:24.463Z,12.00
2018-09-30T21:08:53.700Z,13.00
2018-09-30T21:11:23.051Z,13.75
2018-09-30T21:13:52.237Z,13.75
2018-09-30T21:16:21.474Z,12.50
2018-09-30T21:18:50.795Z,13.00
2018-09-30T21:21:19.926Z,13.00
2018-09-30T21:23:49.109Z,13.00
2018-09-30T21:26:18.813Z,11.00
2018-09-30T21:28:48.115Z,12.50
2018-09-30T21:31:17.341Z,18.00
2018-09-30T21:33:46.631Z,13.75
2018-09-30T21:36:18.872Z,16.00
2018-09-30T21:38:48.107Z,16.00
2018-09-30T21:41:17.329Z,14.50
2018-09-30T21:43:46.520Z,11.50
2018-09-30T21:46:15.694Z,13.00
2018-09-30T21:48:44.955Z,10.00
2018-09-30T21:51:14.090Z,9.25
2018-09-30T21:53:43.303Z,7.50
2018-09-30T21:56:12.564Z,8.00
2018-09-30T21:58:42.720Z,3.00
2018-09-30T22:01:11.981Z,3.00
2018-09-30T22:03:41.238Z,3.00
2018-09-30T22:06:10.433Z,3.00
2018-09-30T22:08:40.686Z,3.00
2018-09-30T22:11:09.894Z,2.50
2018-09-30T22:13:39.135Z,3.00
2018-09-30T22:16:08.400Z,3.00
2018-09-30T22:18:37.621Z,3.00
2018-09-30T22:21:06.998Z,5.00
2018-09-30T22:23:36.235Z,2.50
2018-09-30T22:26:05.439Z,3.50
2018-09-30T22:28:34.853Z,3.00
2018-09-30T22:31:04.008Z,3.00
2018-09-30T22:33:33.160Z,4.50
2018-09-30T22:36:02.370Z,3.00
2018-09-30T22:38:31.540Z,5.25
2018-09-30T22:41:00.709Z,5.00
2018-09-30T22:43:29.898Z,5.00
2018-09-30T22:45:59.074Z,5.00
2018-09-30T22:48:28.296Z,5.75
2018-09-30T22:50:57.495Z,4.00
2018-09-30T22:53:26.765Z,6.00
2018-09-30T22:55:55.905Z,6.00
2018-09-30T22:58:25.094Z,5.25
2018-09-30T23:00:54.260Z,6.00
2018-09-30T23:03:23.420Z,6.00
2018-09-30T23:05:52.626Z,6.00
2018-09-30T23:08:21.826Z,6.00
2018-09-30T23:10:51.476Z,6.00
2018-09-30T23:13:20.718Z,6.00
2018-09-30T23:15:49.902Z,8.00
2018-09-30T23:18:19.076Z,6.50
2018-09-30T23:20:49.303Z,6.00
2018-09-30T23:23:18.500Z,6.50
2018-09-30T23:25:47.708Z,6.00
2018-09-30T23:28:16.889Z,5.00
2018-09-30T23:30:46.103Z,6.00
2018-09-30T23:33:15.295Z,4.50
2018-09-30T23:35:44.481Z,6.75
2018-09-30T23:38:13.687Z,4.50
2018-09-30T23:40:43.239Z,5.00
2018-09-30T23:43:12.405Z,5.00
2018-09-30T23:45:41.653Z,5.00
2018-09-30T23:48:10.871Z,5.50
2018-09-30T23:50:40.033Z,3.00
2018-09-30T23:53:09.233Z,5.00
2018-09-30T23:55:38.399Z,5.00
2018-09-30T23:58:13.875Z,4.50
